BAW3586 VHHH-VGHS
Flight info
| Callsign | BAW3586 |
|---|---|
| Flight time | 3h 28m |
| Altitude | 34000 |
| Route | PECAN V10 SIKOU/K0930S1040 A202 ASSAD/K0928F340 A206 NALAO/N0500F340 A206 LPB B465 CTG G463 ADMIL ADMIL1E |
| Aircraft | B744/H-SDE3FGHIM1M2RWXY/LB1 |
Departure
| Time | 2026-05-05 20:15 |
|---|---|
| Airport | Hong Kong International Airport (VHHH) |
Arrival
| Time | 2026-05-05 23:43 |
|---|---|
| Airport | Hazrat Shahjalal International Airport (VGHS) |
| Time | Latitude | Longitude | Altitude | Speed | Heading |
|---|---|---|---|---|---|
| 2026-05-05 20:09 | 22.31267 | 113.90878 | 43 ft | 0 kts | 249° |
| 2026-05-05 20:09 | 22.31266 | 113.90876 | 43 ft | 2 kts | 249° |
| 2026-05-05 20:10 | 22.31250 | 113.90832 | 39 ft | 8 kts | 249° |
| 2026-05-05 20:10 | 22.31222 | 113.90752 | 38 ft | 14 kts | 249° |
| 2026-05-05 20:10 | 22.31183 | 113.90639 | 39 ft | 17 kts | 250° |
| 2026-05-05 20:10 | 22.31139 | 113.90504 | 37 ft | 21 kts | 250° |
| 2026-05-05 20:11 | 22.31091 | 113.90348 | 37 ft | 23 kts | 251° |
| 2026-05-05 20:11 | 22.31036 | 113.90177 | 38 ft | 27 kts | 250° |
| 2026-05-05 20:11 | 22.30976 | 113.89994 | 38 ft | 22 kts | 251° |
| 2026-05-05 20:11 | 22.30937 | 113.89873 | 38 ft | 14 kts | 251° |
| 2026-05-05 20:12 | 22.30953 | 113.89806 | 38 ft | 11 kts | 333° |
| 2026-05-05 20:12 | 22.31030 | 113.89773 | 37 ft | 11 kts | 341° |
| 2026-05-05 20:12 | 22.31082 | 113.89767 | 38 ft | 7 kts | 52° |
| 2026-05-05 20:12 | 22.31091 | 113.89786 | 36 ft | 0 kts | 70° |
| 2026-05-05 20:13 | 22.31121 | 113.89879 | 36 ft | 38 kts | 71° |
| 2026-05-05 20:14 | 22.31277 | 113.90365 | 37 ft | 96 kts | 71° |
| 2026-05-05 20:14 | 22.31548 | 113.91204 | 41 ft | 135 kts | 70° |
| 2026-05-05 20:14 | 22.31914 | 113.92303 | 61 ft | 160 kts | 70° |
| 2026-05-05 20:14 | 22.32287 | 113.93601 | 419 ft | 172 kts | 70° |
| 2026-05-05 20:15 | 22.32684 | 113.94939 | 1051 ft | 173 kts | 69° |
| 2026-05-05 20:15 | 22.33098 | 113.96249 | 1424 ft | 184 kts | 68° |
| 2026-05-05 20:15 | 22.33548 | 113.97633 | 1687 ft | 195 kts | 71° |
| 2026-05-05 20:15 | 22.33830 | 113.99178 | 2117 ft | 200 kts | 79° |
| 2026-05-05 20:16 | 22.34040 | 114.00753 | 2578 ft | 207 kts | 79° |
| 2026-05-05 20:16 | 22.34257 | 114.02353 | 3100 ft | 207 kts | 79° |
| 2026-05-05 20:16 | 22.34456 | 114.03953 | 3672 ft | 214 kts | 92° |
| 2026-05-05 20:16 | 22.33953 | 114.05525 | 4294 ft | 211 kts | 122° |
| 2026-05-05 20:17 | 22.32975 | 114.06834 | 5052 ft | 210 kts | 135° |
| 2026-05-05 20:17 | 22.31790 | 114.07925 | 5801 ft | 222 kts | 149° |
| 2026-05-05 20:17 | 22.30303 | 114.08526 | 6416 ft | 220 kts | 173° |
| 2026-05-05 20:17 | 22.28672 | 114.08616 | 7127 ft | 220 kts | 179° |
| 2026-05-05 20:18 | 22.27043 | 114.08685 | 7857 ft | 219 kts | 179° |
| 2026-05-05 20:18 | 22.25390 | 114.08725 | 8465 ft | 227 kts | 181° |
| 2026-05-05 20:18 | 22.23710 | 114.08764 | 8966 ft | 241 kts | 181° |
| 2026-05-05 20:18 | 22.21907 | 114.08811 | 9377 ft | 263 kts | 181° |
| 2026-05-05 20:19 | 22.19989 | 114.08849 | 9822 ft | 278 kts | 182° |
| 2026-05-05 20:19 | 22.17964 | 114.09025 | 10333 ft | 297 kts | 168° |
| 2026-05-05 20:19 | 22.15973 | 114.10041 | 10825 ft | 320 kts | 146° |
| 2026-05-05 20:19 | 22.14379 | 114.11908 | 11344 ft | 356 kts | 126° |
| 2026-05-05 20:20 | 22.13110 | 114.14243 | 11816 ft | 380 kts | 119° |
| 2026-05-05 20:20 | 22.11913 | 114.16800 | 12254 ft | 395 kts | 117° |
| 2026-05-05 20:20 | 22.10703 | 114.19510 | 12637 ft | 417 kts | 116° |
| 2026-05-05 20:20 | 22.09453 | 114.22326 | 13062 ft | 438 kts | 117° |
| 2026-05-05 20:21 | 22.08066 | 114.25173 | 13642 ft | 442 kts | 124° |
| 2026-05-05 20:21 | 22.06104 | 114.27599 | 14275 ft | 444 kts | 139° |
| 2026-05-05 20:21 | 22.03806 | 114.29631 | 14906 ft | 441 kts | 144° |
| 2026-05-05 20:21 | 22.01252 | 114.31456 | 15521 ft | 424 kts | 155° |
| 2026-05-05 20:22 | 21.98417 | 114.32441 | 16075 ft | 439 kts | 173° |
| 2026-05-05 20:22 | 21.95407 | 114.32540 | 16617 ft | 449 kts | 188° |
| 2026-05-05 20:22 | 21.92494 | 114.31801 | 17142 ft | 442 kts | 203° |
| 2026-05-05 20:22 | 21.89844 | 114.30307 | 17671 ft | 424 kts | 215° |
| 2026-05-05 20:23 | 21.87381 | 114.28449 | 18215 ft | 446 kts | 219° |
| 2026-05-05 20:23 | 21.84978 | 114.26453 | 18747 ft | 434 kts | 221° |
| 2026-05-05 20:23 | 21.82599 | 114.24386 | 19253 ft | 451 kts | 221° |
| 2026-05-05 20:23 | 21.80217 | 114.22289 | 19739 ft | 453 kts | 222° |
| 2026-05-05 20:24 | 21.77812 | 114.20178 | 20215 ft | 465 kts | 221° |
| 2026-05-05 20:24 | 21.75360 | 114.18050 | 20676 ft | 450 kts | 221° |
| 2026-05-05 20:24 | 21.72896 | 114.15916 | 21107 ft | 441 kts | 221° |
| 2026-05-05 20:24 | 21.70385 | 114.13790 | 21527 ft | 468 kts | 221° |
| 2026-05-05 20:25 | 21.67864 | 114.11654 | 21942 ft | 444 kts | 221° |
| 2026-05-05 20:25 | 21.65252 | 114.09603 | 22322 ft | 465 kts | 214° |
| 2026-05-05 20:25 | 21.62247 | 114.08144 | 22724 ft | 482 kts | 201° |
| 2026-05-05 20:25 | 21.59025 | 114.07159 | 23103 ft | 473 kts | 197° |
| 2026-05-05 20:26 | 21.55775 | 114.06340 | 23459 ft | 494 kts | 195° |
| 2026-05-05 20:26 | 21.52453 | 114.05558 | 23812 ft | 497 kts | 195° |
| 2026-05-05 20:26 | 21.49122 | 114.04774 | 24150 ft | 466 kts | 196° |
| 2026-05-05 20:26 | 21.45783 | 114.03950 | 24481 ft | 487 kts | 198° |
| 2026-05-05 20:27 | 21.42583 | 114.02674 | 24793 ft | 513 kts | 210° |
| 2026-05-05 20:27 | 21.39662 | 114.00831 | 25135 ft | 507 kts | 216° |
| 2026-05-05 20:27 | 21.36836 | 113.98807 | 25449 ft | 491 kts | 218° |
| 2026-05-05 20:27 | 21.34034 | 113.96727 | 25750 ft | 507 kts | 218° |
| 2026-05-05 20:28 | 21.31232 | 113.94646 | 26054 ft | 530 kts | 218° |
| 2026-05-05 20:28 | 21.28387 | 113.92567 | 26346 ft | 507 kts | 218° |
| 2026-05-05 20:28 | 21.25511 | 113.90500 | 26635 ft | 510 kts | 218° |
| 2026-05-05 20:28 | 21.22608 | 113.88438 | 26922 ft | 489 kts | 217° |
| 2026-05-05 20:29 | 21.19675 | 113.86369 | 27189 ft | 519 kts | 217° |
| 2026-05-05 20:29 | 21.16801 | 113.84347 | 27450 ft | 518 kts | 217° |
| 2026-05-05 20:29 | 21.13853 | 113.82274 | 27671 ft | 508 kts | 217° |
| 2026-05-05 20:29 | 21.10994 | 113.80068 | 27963 ft | 497 kts | 225° |
| 2026-05-05 20:30 | 21.08748 | 113.77306 | 28310 ft | 500 kts | 240° |
| 2026-05-05 20:30 | 21.07164 | 113.74044 | 28650 ft | 481 kts | 251° |
| 2026-05-05 20:30 | 21.05939 | 113.70665 | 28989 ft | 499 kts | 253° |
| 2026-05-05 20:30 | 21.04824 | 113.67255 | 29345 ft | 459 kts | 255° |
| 2026-05-05 20:31 | 21.03754 | 113.63864 | 29712 ft | 478 kts | 255° |
| 2026-05-05 20:31 | 21.02695 | 113.60440 | 30097 ft | 499 kts | 255° |
| 2026-05-05 20:31 | 21.01627 | 113.57034 | 30456 ft | 486 kts | 255° |
| 2026-05-05 20:31 | 21.00551 | 113.53650 | 30862 ft | 472 kts | 255° |
| 2026-05-05 20:32 | 20.99465 | 113.50275 | 31238 ft | 488 kts | 255° |
| 2026-05-05 20:32 | 20.98374 | 113.46905 | 31632 ft | 470 kts | 255° |
| 2026-05-05 20:32 | 20.97283 | 113.43545 | 32032 ft | 481 kts | 255° |
| 2026-05-05 20:32 | 20.96564 | 113.41329 | 32288 ft | 463 kts | 255° |
| 2026-05-05 20:33 | 20.95470 | 113.37994 | 32706 ft | 479 kts | 255° |
| 2026-05-05 20:33 | 20.94386 | 113.34633 | 33114 ft | 501 kts | 255° |
| 2026-05-05 20:33 | 20.93297 | 113.31294 | 33531 ft | 472 kts | 255° |
| 2026-05-05 20:33 | 20.91855 | 113.26872 | 33900 ft | 463 kts | 254° |
| 2026-05-05 20:34 | 20.91116 | 113.24611 | 33932 ft | 488 kts | 254° |
| 2026-05-05 20:34 | 20.88946 | 113.17977 | 33921 ft | 486 kts | 254° |
| 2026-05-05 20:34 | 20.87864 | 113.14675 | 33919 ft | 474 kts | 254° |
| 2026-05-05 20:35 | 20.86783 | 113.11376 | 33917 ft | 473 kts | 254° |
| 2026-05-05 20:35 | 20.84621 | 113.04782 | 33916 ft | 478 kts | 254° |
| 2026-05-05 20:36 | 20.82458 | 112.98195 | 33916 ft | 474 kts | 254° |
| 2026-05-05 20:36 | 20.80289 | 112.91604 | 33914 ft | 486 kts | 254° |
| 2026-05-05 20:36 | 20.79205 | 112.88310 | 33914 ft | 473 kts | 254° |
| 2026-05-05 20:37 | 20.78116 | 112.85005 | 33916 ft | 473 kts | 254° |
| 2026-05-05 20:37 | 20.77032 | 112.81714 | 33918 ft | 491 kts | 253° |
| 2026-05-05 20:37 | 20.75944 | 112.78419 | 33916 ft | 475 kts | 253° |
| 2026-05-05 20:37 | 20.74871 | 112.75171 | 33916 ft | 456 kts | 253° |
| 2026-05-05 20:38 | 20.73767 | 112.71833 | 33915 ft | 571 kts | 253° |
| 2026-05-05 20:38 | 20.72673 | 112.68526 | 33914 ft | 477 kts | 253° |
| 2026-05-05 20:38 | 20.71597 | 112.65273 | 33913 ft | 469 kts | 253° |
| 2026-05-05 20:39 | 20.69416 | 112.58693 | 33913 ft | 473 kts | 253° |
| 2026-05-05 20:39 | 20.67243 | 112.52144 | 33916 ft | 515 kts | 253° |
| 2026-05-05 20:39 | 20.66178 | 112.48931 | 33919 ft | 483 kts | 253° |
| 2026-05-05 20:40 | 20.65076 | 112.45622 | 33909 ft | 471 kts | 253° |
| 2026-05-05 20:40 | 20.63983 | 112.42334 | 33906 ft | 488 kts | 253° |
| 2026-05-05 20:40 | 20.62888 | 112.39046 | 33899 ft | 483 kts | 253° |
| 2026-05-05 20:41 | 20.60698 | 112.32474 | 33910 ft | 501 kts | 253° |
| 2026-05-05 20:41 | 20.59606 | 112.29199 | 33911 ft | 448 kts | 253° |
| 2026-05-05 20:41 | 20.58506 | 112.25906 | 33910 ft | 480 kts | 253° |
| 2026-05-05 20:41 | 20.57406 | 112.22611 | 33913 ft | 523 kts | 253° |
| 2026-05-05 20:42 | 20.56364 | 112.19316 | 33906 ft | 472 kts | 257° |
| 2026-05-05 20:42 | 20.55997 | 112.15875 | 33906 ft | 480 kts | 272° |
| 2026-05-05 20:42 | 20.56485 | 112.12558 | 33908 ft | 484 kts | 286° |
| 2026-05-05 20:42 | 20.57623 | 112.09301 | 33911 ft | 468 kts | 292° |
| 2026-05-05 20:43 | 20.58941 | 112.06150 | 33908 ft | 492 kts | 295° |
| 2026-05-05 20:43 | 20.60342 | 112.03036 | 33908 ft | 464 kts | 296° |
| 2026-05-05 20:43 | 20.61777 | 111.99961 | 33907 ft | 477 kts | 296° |
| 2026-05-05 20:43 | 20.63219 | 111.96842 | 33907 ft | 462 kts | 296° |
| 2026-05-05 20:44 | 20.64658 | 111.93731 | 33909 ft | 472 kts | 296° |
| 2026-05-05 20:44 | 20.67494 | 111.87506 | 33914 ft | 468 kts | 295° |
| 2026-05-05 20:45 | 20.71701 | 111.78158 | 33911 ft | 469 kts | 295° |
| 2026-05-05 20:45 | 20.73100 | 111.75044 | 33914 ft | 448 kts | 295° |
| 2026-05-05 20:45 | 20.74497 | 111.71923 | 33913 ft | 462 kts | 295° |
| 2026-05-05 20:46 | 20.77287 | 111.65702 | 33911 ft | 469 kts | 296° |
| 2026-05-05 20:46 | 20.80089 | 111.59453 | 33908 ft | 471 kts | 296° |
| 2026-05-05 20:47 | 20.82737 | 111.53140 | 33908 ft | 483 kts | 287° |
| 2026-05-05 20:47 | 20.83211 | 111.49701 | 33938 ft | 473 kts | 272° |
| 2026-05-05 20:47 | 20.82871 | 111.46208 | 33968 ft | 498 kts | 260° |
| 2026-05-05 20:48 | 20.82013 | 111.42824 | 33923 ft | 478 kts | 255° |
| 2026-05-05 20:48 | 20.80961 | 111.39465 | 33916 ft | 484 kts | 253° |
| 2026-05-05 20:48 | 20.79834 | 111.36150 | 33910 ft | 471 kts | 252° |
| 2026-05-05 20:48 | 20.78682 | 111.32843 | 33903 ft | 455 kts | 252° |
| 2026-05-05 20:49 | 20.77530 | 111.29546 | 33907 ft | 480 kts | 252° |
| 2026-05-05 20:49 | 20.76389 | 111.26241 | 33908 ft | 477 kts | 252° |
| 2026-05-05 20:49 | 20.75264 | 111.22945 | 33905 ft | 494 kts | 252° |
| 2026-05-05 20:49 | 20.74147 | 111.19643 | 33904 ft | 481 kts | 252° |
| 2026-05-05 20:50 | 20.73038 | 111.16350 | 33905 ft | 470 kts | 252° |
| 2026-05-05 20:50 | 20.71929 | 111.13047 | 33906 ft | 479 kts | 252° |
| 2026-05-05 20:50 | 20.70825 | 111.09762 | 33907 ft | 462 kts | 252° |
| 2026-05-05 20:50 | 20.69720 | 111.06476 | 33905 ft | 487 kts | 252° |
| 2026-05-05 20:51 | 20.67517 | 110.99947 | 33900 ft | 494 kts | 252° |
| 2026-05-05 20:51 | 20.66405 | 110.96675 | 33900 ft | 480 kts | 252° |
| 2026-05-05 20:51 | 20.65298 | 110.93386 | 33900 ft | 474 kts | 251° |
| 2026-05-05 20:52 | 20.63079 | 110.86827 | 33903 ft | 489 kts | 251° |
| 2026-05-05 20:52 | 20.61972 | 110.83553 | 33902 ft | 473 kts | 251° |
| 2026-05-05 20:52 | 20.60865 | 110.80284 | 33901 ft | 477 kts | 252° |
| 2026-05-05 20:53 | 20.58653 | 110.73743 | 33899 ft | 459 kts | 252° |
| 2026-05-05 20:53 | 20.57546 | 110.70473 | 33898 ft | 473 kts | 252° |
| 2026-05-05 20:53 | 20.56439 | 110.67187 | 33913 ft | 491 kts | 252° |
| 2026-05-05 20:54 | 20.55333 | 110.63925 | 33903 ft | 476 kts | 252° |
| 2026-05-05 20:54 | 20.54245 | 110.60670 | 33902 ft | 471 kts | 253° |
| 2026-05-05 20:54 | 20.52013 | 110.54048 | 33899 ft | 489 kts | 253° |
| 2026-05-05 20:55 | 20.50857 | 110.50746 | 33896 ft | 472 kts | 249° |
| 2026-05-05 20:55 | 20.49218 | 110.47649 | 33896 ft | 504 kts | 238° |
| 2026-05-05 20:55 | 20.45025 | 110.41995 | 33901 ft | 476 kts | 233° |
| 2026-05-05 20:56 | 20.42861 | 110.39247 | 33903 ft | 493 kts | 233° |
| 2026-05-05 20:56 | 20.40672 | 110.36506 | 33901 ft | 479 kts | 233° |
| 2026-05-05 20:56 | 20.38515 | 110.33752 | 33907 ft | 493 kts | 233° |
| 2026-05-05 20:56 | 20.36383 | 110.30997 | 33903 ft | 486 kts | 233° |
| 2026-05-05 20:57 | 20.32162 | 110.25488 | 33900 ft | 486 kts | 233° |
| 2026-05-05 20:57 | 20.27985 | 110.19993 | 33900 ft | 495 kts | 234° |
| 2026-05-05 20:58 | 20.25907 | 110.17244 | 33894 ft | 470 kts | 234° |
| 2026-05-05 20:58 | 20.23845 | 110.14464 | 33895 ft | 482 kts | 234° |
| 2026-05-05 20:58 | 20.19706 | 110.08948 | 33905 ft | 464 kts | 234° |
| 2026-05-05 20:59 | 20.17641 | 110.06173 | 33895 ft | 485 kts | 234° |
| 2026-05-05 20:59 | 20.15568 | 110.03408 | 33891 ft | 482 kts | 234° |
| 2026-05-05 20:59 | 20.11418 | 109.97883 | 33896 ft | 495 kts | 233° |
| 2026-05-05 21:00 | 20.07266 | 109.92374 | 33895 ft | 481 kts | 233° |
| 2026-05-05 21:00 | 20.03120 | 109.86881 | 33892 ft | 490 kts | 234° |
| 2026-05-05 21:01 | 20.01033 | 109.84111 | 33894 ft | 466 kts | 234° |
| 2026-05-05 21:01 | 19.98955 | 109.81352 | 33898 ft | 480 kts | 234° |
| 2026-05-05 21:01 | 19.94781 | 109.75811 | 33898 ft | 495 kts | 234° |
| 2026-05-05 21:02 | 19.92690 | 109.73040 | 33898 ft | 482 kts | 234° |
| 2026-05-05 21:02 | 19.90590 | 109.70257 | 33897 ft | 488 kts | 234° |
| 2026-05-05 21:02 | 19.88498 | 109.67488 | 33906 ft | 499 kts | 234° |
| 2026-05-05 21:02 | 19.86388 | 109.64695 | 33896 ft | 483 kts | 234° |
| 2026-05-05 21:03 | 19.82199 | 109.59158 | 33893 ft | 513 kts | 234° |
| 2026-05-05 21:03 | 19.80107 | 109.56394 | 33894 ft | 502 kts | 234° |
| 2026-05-05 21:03 | 19.78015 | 109.53631 | 33895 ft | 488 kts | 234° |
| 2026-05-05 21:04 | 19.75919 | 109.50864 | 33896 ft | 499 kts | 234° |
| 2026-05-05 21:04 | 19.73857 | 109.48143 | 33894 ft | 481 kts | 234° |
| 2026-05-05 21:04 | 19.69656 | 109.42603 | 33891 ft | 482 kts | 234° |
| 2026-05-05 21:05 | 19.67566 | 109.39849 | 33896 ft | 499 kts | 234° |
| 2026-05-05 21:05 | 19.65466 | 109.37083 | 33892 ft | 493 kts | 234° |
| 2026-05-05 21:05 | 19.63363 | 109.34314 | 33892 ft | 516 kts | 234° |
| 2026-05-05 21:05 | 19.61264 | 109.31553 | 33895 ft | 468 kts | 234° |
| 2026-05-05 21:06 | 19.59162 | 109.28789 | 33897 ft | 509 kts | 234° |
| 2026-05-05 21:06 | 19.57056 | 109.26020 | 33897 ft | 506 kts | 234° |
| 2026-05-05 21:06 | 19.54953 | 109.23257 | 33894 ft | 485 kts | 234° |
| 2026-05-05 21:06 | 19.52848 | 109.20491 | 33894 ft | 491 kts | 234° |
| 2026-05-05 21:07 | 19.50737 | 109.17722 | 33892 ft | 513 kts | 234° |
| 2026-05-05 21:07 | 19.48648 | 109.14997 | 33893 ft | 501 kts | 233° |
| 2026-05-05 21:07 | 19.46496 | 109.12230 | 33898 ft | 487 kts | 233° |
| 2026-05-05 21:07 | 19.44403 | 109.09497 | 33896 ft | 475 kts | 233° |
| 2026-05-05 21:08 | 19.40166 | 109.03996 | 33895 ft | 485 kts | 233° |
| 2026-05-05 21:08 | 19.35925 | 108.98529 | 33895 ft | 510 kts | 233° |
| 2026-05-05 21:09 | 19.33819 | 108.95780 | 33894 ft | 496 kts | 233° |
| 2026-05-05 21:09 | 19.31710 | 108.93052 | 33895 ft | 486 kts | 233° |
| 2026-05-05 21:09 | 19.29600 | 108.90327 | 33893 ft | 467 kts | 233° |
| 2026-05-05 21:09 | 19.27492 | 108.87598 | 33894 ft | 471 kts | 233° |
| 2026-05-05 21:10 | 19.23279 | 108.82157 | 33894 ft | 489 kts | 232° |
| 2026-05-05 21:10 | 19.21176 | 108.79446 | 33892 ft | 472 kts | 232° |
| 2026-05-05 21:10 | 19.19070 | 108.76736 | 33889 ft | 474 kts | 232° |
| 2026-05-05 21:11 | 19.16962 | 108.74021 | 33890 ft | 494 kts | 232° |
| 2026-05-05 21:11 | 19.14851 | 108.71322 | 33887 ft | 469 kts | 232° |
| 2026-05-05 21:11 | 19.12737 | 108.68587 | 33890 ft | 510 kts | 232° |
| 2026-05-05 21:11 | 19.10635 | 108.65882 | 33894 ft | 485 kts | 232° |
| 2026-05-05 21:12 | 19.08551 | 108.63202 | 33888 ft | 469 kts | 233° |
| 2026-05-05 21:12 | 19.06444 | 108.60489 | 33885 ft | 490 kts | 233° |
| 2026-05-05 21:12 | 19.02229 | 108.55067 | 33886 ft | 470 kts | 233° |
| 2026-05-05 21:13 | 18.98010 | 108.49645 | 33888 ft | 481 kts | 233° |
| 2026-05-05 21:13 | 18.93787 | 108.44224 | 33884 ft | 479 kts | 233° |
| 2026-05-05 21:14 | 18.89560 | 108.38801 | 33878 ft | 474 kts | 233° |
| 2026-05-05 21:14 | 18.85330 | 108.33380 | 33879 ft | 490 kts | 233° |
| 2026-05-05 21:15 | 18.83240 | 108.30703 | 33877 ft | 478 kts | 233° |
| 2026-05-05 21:15 | 18.81097 | 108.27959 | 33881 ft | 477 kts | 233° |
| 2026-05-05 21:15 | 18.76861 | 108.22540 | 33879 ft | 468 kts | 233° |
| 2026-05-05 21:16 | 18.74768 | 108.19864 | 33876 ft | 481 kts | 233° |
| 2026-05-05 21:16 | 18.72654 | 108.17162 | 33879 ft | 475 kts | 233° |
| 2026-05-05 21:16 | 18.68404 | 108.11734 | 33879 ft | 472 kts | 233° |
| 2026-05-05 21:17 | 18.64152 | 108.06308 | 33877 ft | 478 kts | 233° |
| 2026-05-05 21:17 | 18.59904 | 108.00892 | 33877 ft | 481 kts | 233° |
| 2026-05-05 21:18 | 18.55653 | 107.95476 | 33881 ft | 483 kts | 233° |
| 2026-05-05 21:18 | 18.53525 | 107.92768 | 33876 ft | 472 kts | 233° |
| 2026-05-05 21:18 | 18.51384 | 107.90043 | 33872 ft | 502 kts | 233° |
| 2026-05-05 21:19 | 18.49982 | 107.88259 | 33875 ft | 477 kts | 233° |
| 2026-05-05 21:19 | 18.47840 | 107.85549 | 33882 ft | 486 kts | 233° |
| 2026-05-05 21:19 | 18.42890 | 107.79247 | 33880 ft | 483 kts | 233° |
| 2026-05-05 21:20 | 18.39308 | 107.74698 | 33877 ft | 475 kts | 233° |
| 2026-05-05 21:20 | 18.35897 | 107.68866 | 33876 ft | 498 kts | 254° |
| 2026-05-05 21:21 | 18.35294 | 107.64366 | 33879 ft | 485 kts | 272° |
| 2026-05-05 21:21 | 18.35455 | 107.62080 | 33879 ft | 471 kts | 277° |
| 2026-05-05 21:21 | 18.35955 | 107.58705 | 33877 ft | 488 kts | 281° |
| 2026-05-05 21:21 | 18.36588 | 107.55319 | 33877 ft | 467 kts | 282° |
| 2026-05-05 21:22 | 18.37278 | 107.51981 | 33877 ft | 524 kts | 283° |
| 2026-05-05 21:22 | 18.37989 | 107.48630 | 33877 ft | 471 kts | 283° |
| 2026-05-05 21:22 | 18.39379 | 107.41956 | 33873 ft | 464 kts | 282° |
| 2026-05-05 21:23 | 18.40723 | 107.35259 | 33875 ft | 467 kts | 282° |
| 2026-05-05 21:23 | 18.41387 | 107.31903 | 33869 ft | 489 kts | 282° |
| 2026-05-05 21:23 | 18.42049 | 107.28547 | 33873 ft | 468 kts | 282° |
| 2026-05-05 21:24 | 18.43371 | 107.21837 | 33877 ft | 475 kts | 282° |
| 2026-05-05 21:24 | 18.44690 | 107.15132 | 33877 ft | 466 kts | 282° |
| 2026-05-05 21:25 | 18.45998 | 107.08479 | 33874 ft | 464 kts | 281° |
| 2026-05-05 21:25 | 18.47309 | 107.01796 | 33875 ft | 466 kts | 281° |
| 2026-05-05 21:26 | 18.48615 | 106.95114 | 33875 ft | 466 kts | 281° |
| 2026-05-05 21:26 | 18.49925 | 106.88398 | 33875 ft | 480 kts | 281° |
| 2026-05-05 21:27 | 18.50581 | 106.85033 | 33871 ft | 469 kts | 281° |
| 2026-05-05 21:27 | 18.51236 | 106.81665 | 33869 ft | 474 kts | 281° |
| 2026-05-05 21:27 | 18.52549 | 106.74906 | 33871 ft | 470 kts | 281° |
| 2026-05-05 21:28 | 18.53851 | 106.68195 | 33873 ft | 472 kts | 281° |
| 2026-05-05 21:28 | 18.55161 | 106.61427 | 33868 ft | 471 kts | 281° |
| 2026-05-05 21:29 | 18.56473 | 106.54650 | 33866 ft | 485 kts | 281° |
| 2026-05-05 21:29 | 18.57793 | 106.47889 | 33865 ft | 475 kts | 281° |
| 2026-05-05 21:30 | 18.59114 | 106.41122 | 33867 ft | 479 kts | 281° |
| 2026-05-05 21:30 | 18.60435 | 106.34357 | 33869 ft | 473 kts | 281° |
| 2026-05-05 21:31 | 18.61754 | 106.27587 | 33869 ft | 470 kts | 281° |
| 2026-05-05 21:31 | 18.62415 | 106.24214 | 33870 ft | 486 kts | 281° |
| 2026-05-05 21:31 | 18.63074 | 106.20796 | 33869 ft | 475 kts | 281° |
| 2026-05-05 21:32 | 18.64382 | 106.14056 | 33867 ft | 472 kts | 282° |
| 2026-05-05 21:32 | 18.65696 | 106.07270 | 33867 ft | 471 kts | 282° |
| 2026-05-05 21:33 | 18.66997 | 106.00495 | 33867 ft | 470 kts | 282° |
| 2026-05-05 21:33 | 18.67645 | 105.97104 | 33868 ft | 483 kts | 282° |
| 2026-05-05 21:33 | 18.68291 | 105.93717 | 33867 ft | 470 kts | 282° |
| 2026-05-05 21:34 | 18.69585 | 105.86931 | 33871 ft | 478 kts | 282° |
| 2026-05-05 21:34 | 18.70878 | 105.80137 | 33863 ft | 473 kts | 282° |
| 2026-05-05 21:35 | 18.71526 | 105.76732 | 33869 ft | 486 kts | 282° |
| 2026-05-05 21:35 | 18.72171 | 105.73334 | 33868 ft | 484 kts | 282° |
| 2026-05-05 21:35 | 18.72818 | 105.69927 | 33868 ft | 464 kts | 282° |
| 2026-05-05 21:35 | 18.73549 | 105.66548 | 33872 ft | 467 kts | 287° |
| 2026-05-05 21:36 | 18.75721 | 105.59995 | 33872 ft | 475 kts | 290° |
| 2026-05-05 21:36 | 18.77969 | 105.53525 | 33874 ft | 486 kts | 290° |
| 2026-05-05 21:37 | 18.79107 | 105.50255 | 33873 ft | 472 kts | 290° |
| 2026-05-05 21:37 | 18.80243 | 105.46997 | 33879 ft | 485 kts | 290° |
| 2026-05-05 21:37 | 18.82548 | 105.40278 | 33874 ft | 513 kts | 290° |
| 2026-05-05 21:38 | 18.83710 | 105.36887 | 33873 ft | 493 kts | 290° |
| 2026-05-05 21:38 | 18.84867 | 105.33506 | 33876 ft | 519 kts | 290° |
| 2026-05-05 21:38 | 18.86026 | 105.30117 | 33883 ft | 500 kts | 290° |
| 2026-05-05 21:38 | 18.87176 | 105.26754 | 33880 ft | 496 kts | 290° |
| 2026-05-05 21:39 | 18.89479 | 105.20011 | 33883 ft | 500 kts | 290° |
| 2026-05-05 21:39 | 18.91770 | 105.13299 | 33894 ft | 486 kts | 290° |
| 2026-05-05 21:40 | 18.94068 | 105.06554 | 33889 ft | 486 kts | 290° |
| 2026-05-05 21:40 | 18.96360 | 104.99819 | 33894 ft | 485 kts | 290° |
| 2026-05-05 21:41 | 18.97493 | 104.96487 | 33891 ft | 502 kts | 290° |
| 2026-05-05 21:41 | 18.98640 | 104.93112 | 33897 ft | 487 kts | 290° |
| 2026-05-05 21:41 | 19.00930 | 104.86363 | 33898 ft | 492 kts | 290° |
| 2026-05-05 21:42 | 19.03219 | 104.79611 | 33903 ft | 482 kts | 290° |
| 2026-05-05 21:42 | 19.04362 | 104.76234 | 33905 ft | 497 kts | 289° |
| 2026-05-05 21:42 | 19.05505 | 104.72858 | 33903 ft | 510 kts | 289° |
| 2026-05-05 21:43 | 19.06649 | 104.69475 | 33905 ft | 493 kts | 289° |
| 2026-05-05 21:43 | 19.07777 | 104.66136 | 33908 ft | 488 kts | 289° |
| 2026-05-05 21:43 | 19.10076 | 104.59328 | 33910 ft | 491 kts | 289° |
| 2026-05-05 21:44 | 19.12342 | 104.52606 | 33912 ft | 488 kts | 289° |
| 2026-05-05 21:44 | 19.14620 | 104.45839 | 33922 ft | 487 kts | 289° |
| 2026-05-05 21:45 | 19.16899 | 104.39060 | 33922 ft | 495 kts | 289° |
| 2026-05-05 21:45 | 19.19172 | 104.32290 | 33930 ft | 504 kts | 289° |
| 2026-05-05 21:46 | 19.20305 | 104.28911 | 33930 ft | 483 kts | 289° |
| 2026-05-05 21:46 | 19.21438 | 104.25532 | 33929 ft | 499 kts | 289° |
| 2026-05-05 21:46 | 19.22575 | 104.22159 | 33935 ft | 476 kts | 289° |
| 2026-05-05 21:46 | 19.23703 | 104.18766 | 33937 ft | 491 kts | 289° |
| 2026-05-05 21:47 | 19.25966 | 104.11999 | 34060 ft | 485 kts | 289° |
| 2026-05-05 21:47 | 19.27096 | 104.08615 | 34339 ft | 506 kts | 289° |
| 2026-05-05 21:47 | 19.28230 | 104.05217 | 34695 ft | 496 kts | 289° |
| 2026-05-05 21:48 | 19.29364 | 104.01818 | 35099 ft | 481 kts | 289° |
| 2026-05-05 21:48 | 19.30481 | 103.98469 | 35514 ft | 499 kts | 289° |
| 2026-05-05 21:48 | 19.31611 | 103.95097 | 35851 ft | 504 kts | 289° |
| 2026-05-05 21:48 | 19.32742 | 103.91677 | 35945 ft | 487 kts | 289° |
| 2026-05-05 21:49 | 19.34962 | 103.84889 | 35957 ft | 487 kts | 289° |
| 2026-05-05 21:49 | 19.37140 | 103.78135 | 35958 ft | 485 kts | 289° |
| 2026-05-05 21:50 | 19.39322 | 103.71386 | 35958 ft | 501 kts | 289° |
| 2026-05-05 21:50 | 19.41521 | 103.64613 | 35962 ft | 487 kts | 289° |
| 2026-05-05 21:51 | 19.42617 | 103.61236 | 35960 ft | 507 kts | 289° |
| 2026-05-05 21:51 | 19.43727 | 103.57836 | 35962 ft | 507 kts | 290° |
| 2026-05-05 21:51 | 19.44889 | 103.54449 | 35963 ft | 460 kts | 290° |
| 2026-05-05 21:51 | 19.46051 | 103.51090 | 35965 ft | 486 kts | 290° |
| 2026-05-05 21:52 | 19.48387 | 103.44338 | 35964 ft | 500 kts | 290° |
| 2026-05-05 21:52 | 19.49549 | 103.40949 | 35965 ft | 493 kts | 290° |
| 2026-05-05 21:52 | 19.50688 | 103.37579 | 35962 ft | 542 kts | 290° |
| 2026-05-05 21:53 | 19.51852 | 103.34196 | 35965 ft | 519 kts | 290° |
| 2026-05-05 21:53 | 19.52981 | 103.30868 | 35964 ft | 482 kts | 290° |
| 2026-05-05 21:53 | 19.54128 | 103.27475 | 35963 ft | 495 kts | 290° |
| 2026-05-05 21:54 | 19.56416 | 103.20720 | 35959 ft | 472 kts | 290° |
| 2026-05-05 21:54 | 19.57556 | 103.17351 | 35960 ft | 486 kts | 290° |
| 2026-05-05 21:54 | 19.58700 | 103.13970 | 35956 ft | 490 kts | 290° |
| 2026-05-05 21:54 | 19.59839 | 103.10599 | 35959 ft | 507 kts | 290° |
| 2026-05-05 21:55 | 19.60969 | 103.07225 | 35952 ft | 510 kts | 290° |
| 2026-05-05 21:55 | 19.62116 | 103.03849 | 35954 ft | 483 kts | 290° |
| 2026-05-05 21:55 | 19.63259 | 103.00470 | 35952 ft | 495 kts | 290° |
| 2026-05-05 21:56 | 19.65530 | 102.93724 | 35950 ft | 464 kts | 290° |
| 2026-05-05 21:56 | 19.66676 | 102.90326 | 35947 ft | 501 kts | 290° |
| 2026-05-05 21:56 | 19.67810 | 102.86957 | 35945 ft | 498 kts | 290° |
| 2026-05-05 21:57 | 19.70062 | 102.80254 | 35943 ft | 505 kts | 290° |
| 2026-05-05 21:57 | 19.71210 | 102.76835 | 35938 ft | 481 kts | 290° |
| 2026-05-05 21:57 | 19.72327 | 102.73506 | 35937 ft | 478 kts | 290° |
| 2026-05-05 21:57 | 19.73454 | 102.70147 | 35936 ft | 560 kts | 290° |
| 2026-05-05 21:58 | 19.74585 | 102.66767 | 35933 ft | 487 kts | 290° |
| 2026-05-05 21:58 | 19.76839 | 102.60033 | 35929 ft | 481 kts | 290° |
| 2026-05-05 21:59 | 19.79087 | 102.53305 | 35928 ft | 490 kts | 290° |
| 2026-05-05 21:59 | 19.81333 | 102.46573 | 35919 ft | 488 kts | 290° |
| 2026-05-05 22:00 | 19.83581 | 102.39832 | 35916 ft | 487 kts | 290° |
| 2026-05-05 22:00 | 19.85850 | 102.33097 | 35915 ft | 487 kts | 289° |
| 2026-05-05 22:01 | 19.88090 | 102.26330 | 35912 ft | 492 kts | 289° |
| 2026-05-05 22:01 | 19.89204 | 102.22942 | 35912 ft | 468 kts | 289° |
| 2026-05-05 22:01 | 19.90322 | 102.19550 | 35914 ft | 487 kts | 289° |
| 2026-05-05 22:02 | 19.93374 | 102.13197 | 35910 ft | 501 kts | 298° |
| 2026-05-05 22:02 | 19.96665 | 102.06908 | 35908 ft | 498 kts | 298° |
| 2026-05-05 22:02 | 19.98326 | 102.03775 | 35907 ft | 486 kts | 298° |
| 2026-05-05 22:03 | 19.99997 | 102.00645 | 35910 ft | 505 kts | 298° |
| 2026-05-05 22:03 | 20.01671 | 101.97525 | 35906 ft | 492 kts | 298° |
| 2026-05-05 22:03 | 20.03350 | 101.94402 | 35908 ft | 491 kts | 298° |
| 2026-05-05 22:04 | 20.06714 | 101.88144 | 35914 ft | 492 kts | 298° |
| 2026-05-05 22:04 | 20.10067 | 101.81903 | 35913 ft | 491 kts | 298° |
| 2026-05-05 22:05 | 20.13397 | 101.75688 | 35917 ft | 486 kts | 298° |
| 2026-05-05 22:05 | 20.16744 | 101.69431 | 35918 ft | 491 kts | 298° |
| 2026-05-05 22:06 | 20.20084 | 101.63180 | 35918 ft | 500 kts | 298° |
| 2026-05-05 22:06 | 20.21757 | 101.60047 | 35922 ft | 489 kts | 298° |
| 2026-05-05 22:06 | 20.23427 | 101.56918 | 35923 ft | 491 kts | 298° |
| 2026-05-05 22:07 | 20.26766 | 101.50654 | 35927 ft | 488 kts | 298° |
| 2026-05-05 22:07 | 20.29541 | 101.45445 | 35923 ft | 488 kts | 298° |
| 2026-05-05 22:08 | 20.32878 | 101.39174 | 35928 ft | 489 kts | 298° |
| 2026-05-05 22:08 | 20.34547 | 101.36034 | 35910 ft | 506 kts | 298° |
| 2026-05-05 22:08 | 20.36213 | 101.32900 | 35910 ft | 483 kts | 298° |
| 2026-05-05 22:09 | 20.39546 | 101.26623 | 35926 ft | 488 kts | 298° |
| 2026-05-05 22:09 | 20.42878 | 101.20339 | 35929 ft | 498 kts | 298° |
| 2026-05-05 22:10 | 20.46196 | 101.14075 | 35916 ft | 564 kts | 298° |
| 2026-05-05 22:10 | 20.47875 | 101.10928 | 35919 ft | 466 kts | 298° |
| 2026-05-05 22:10 | 20.49539 | 101.07758 | 35918 ft | 499 kts | 298° |
| 2026-05-05 22:10 | 20.51210 | 101.04599 | 35936 ft | 480 kts | 298° |
| 2026-05-05 22:11 | 20.52851 | 101.01521 | 35936 ft | 508 kts | 297° |
| 2026-05-05 22:11 | 20.56174 | 100.95199 | 35934 ft | 498 kts | 297° |
| 2026-05-05 22:12 | 20.59506 | 100.88882 | 35938 ft | 520 kts | 297° |
| 2026-05-05 22:12 | 20.61171 | 100.85733 | 35918 ft | 491 kts | 297° |
| 2026-05-05 22:12 | 20.62835 | 100.82572 | 35935 ft | 487 kts | 297° |
| 2026-05-05 22:13 | 20.66152 | 100.76259 | 35936 ft | 498 kts | 297° |
| 2026-05-05 22:13 | 20.67811 | 100.73104 | 35936 ft | 485 kts | 297° |
| 2026-05-05 22:13 | 20.69468 | 100.69950 | 35934 ft | 506 kts | 297° |
| 2026-05-05 22:14 | 20.72781 | 100.63641 | 35918 ft | 496 kts | 297° |
| 2026-05-05 22:14 | 20.74414 | 100.60528 | 35919 ft | 482 kts | 297° |
| 2026-05-05 22:14 | 20.76066 | 100.57380 | 35918 ft | 520 kts | 297° |
| 2026-05-05 22:14 | 20.77721 | 100.54217 | 35921 ft | 491 kts | 297° |
| 2026-05-05 22:15 | 20.79377 | 100.51055 | 35936 ft | 489 kts | 297° |
| 2026-05-05 22:15 | 20.80986 | 100.47868 | 35933 ft | 518 kts | 292° |
| 2026-05-05 22:15 | 20.82145 | 100.44490 | 35917 ft | 486 kts | 287° |
| 2026-05-05 22:15 | 20.83182 | 100.41058 | 35936 ft | 513 kts | 285° |
| 2026-05-05 22:16 | 20.84161 | 100.37616 | 35918 ft | 490 kts | 285° |
| 2026-05-05 22:16 | 20.85107 | 100.34157 | 35935 ft | 501 kts | 284° |
| 2026-05-05 22:16 | 20.86039 | 100.30693 | 35936 ft | 526 kts | 284° |
| 2026-05-05 22:16 | 20.86966 | 100.27232 | 35921 ft | 490 kts | 284° |
| 2026-05-05 22:17 | 20.87893 | 100.23769 | 35923 ft | 491 kts | 284° |
| 2026-05-05 22:17 | 20.89760 | 100.16835 | 35926 ft | 502 kts | 284° |
| 2026-05-05 22:17 | 20.90695 | 100.13374 | 35926 ft | 491 kts | 284° |
| 2026-05-05 22:18 | 20.91617 | 100.09962 | 35930 ft | 483 kts | 284° |
| 2026-05-05 22:18 | 20.93487 | 100.03034 | 35935 ft | 493 kts | 284° |
| 2026-05-05 22:18 | 20.94417 | 99.99583 | 35932 ft | 480 kts | 284° |
| 2026-05-05 22:19 | 20.95351 | 99.96118 | 35938 ft | 487 kts | 284° |
| 2026-05-05 22:19 | 20.96285 | 99.92650 | 35939 ft | 498 kts | 284° |
| 2026-05-05 22:19 | 20.97216 | 99.89187 | 35935 ft | 508 kts | 284° |
| 2026-05-05 22:19 | 20.98146 | 99.85729 | 35938 ft | 481 kts | 284° |
| 2026-05-05 22:20 | 20.99076 | 99.82272 | 35945 ft | 479 kts | 284° |
| 2026-05-05 22:20 | 21.00003 | 99.78814 | 35938 ft | 510 kts | 284° |
| 2026-05-05 22:20 | 21.00930 | 99.75352 | 35945 ft | 496 kts | 284° |
| 2026-05-05 22:21 | 21.02783 | 99.68425 | 35946 ft | 481 kts | 284° |
| 2026-05-05 22:21 | 21.04628 | 99.61510 | 35947 ft | 497 kts | 284° |
| 2026-05-05 22:22 | 21.06474 | 99.54595 | 35946 ft | 485 kts | 284° |
| 2026-05-05 22:22 | 21.08311 | 99.47676 | 35948 ft | 483 kts | 284° |
| 2026-05-05 22:23 | 21.10150 | 99.40752 | 35948 ft | 482 kts | 284° |
| 2026-05-05 22:23 | 21.11970 | 99.33886 | 35945 ft | 483 kts | 284° |
| 2026-05-05 22:24 | 21.13799 | 99.26973 | 35947 ft | 485 kts | 284° |
| 2026-05-05 22:24 | 21.14711 | 99.23521 | 35942 ft | 499 kts | 284° |
| 2026-05-05 22:24 | 21.15624 | 99.20062 | 35943 ft | 480 kts | 284° |
| 2026-05-05 22:25 | 21.17447 | 99.13149 | 35936 ft | 473 kts | 284° |
| 2026-05-05 22:25 | 21.18356 | 99.09696 | 35934 ft | 484 kts | 284° |
| 2026-05-05 22:25 | 21.19265 | 99.06241 | 35934 ft | 494 kts | 284° |
| 2026-05-05 22:26 | 21.21078 | 98.99338 | 35930 ft | 492 kts | 284° |
| 2026-05-05 22:26 | 21.22884 | 98.92449 | 35925 ft | 489 kts | 284° |
| 2026-05-05 22:27 | 21.24681 | 98.85586 | 35924 ft | 476 kts | 284° |
| 2026-05-05 22:27 | 21.26484 | 98.78686 | 35917 ft | 499 kts | 284° |
| 2026-05-05 22:27 | 21.27385 | 98.75230 | 35914 ft | 482 kts | 284° |
| 2026-05-05 22:28 | 21.28286 | 98.71777 | 35914 ft | 470 kts | 284° |
| 2026-05-05 22:28 | 21.29186 | 98.68323 | 35913 ft | 485 kts | 284° |
| 2026-05-05 22:28 | 21.30084 | 98.64870 | 35912 ft | 491 kts | 284° |
| 2026-05-05 22:28 | 21.30983 | 98.61411 | 35909 ft | 471 kts | 284° |
| 2026-05-05 22:29 | 21.31880 | 98.57958 | 35911 ft | 496 kts | 284° |
| 2026-05-05 22:29 | 21.32777 | 98.54503 | 35907 ft | 483 kts | 284° |
| 2026-05-05 22:29 | 21.33671 | 98.51053 | 35906 ft | 494 kts | 284° |
| 2026-05-05 22:29 | 21.34557 | 98.47632 | 35909 ft | 479 kts | 284° |
| 2026-05-05 22:30 | 21.35453 | 98.44172 | 35908 ft | 484 kts | 284° |
| 2026-05-05 22:30 | 21.37238 | 98.37266 | 35912 ft | 483 kts | 284° |
| 2026-05-05 22:30 | 21.38130 | 98.33811 | 35908 ft | 469 kts | 284° |
| 2026-05-05 22:31 | 21.39021 | 98.30354 | 35910 ft | 483 kts | 284° |
| 2026-05-05 22:31 | 21.40802 | 98.23437 | 35915 ft | 482 kts | 284° |
| 2026-05-05 22:31 | 21.41690 | 98.19984 | 35914 ft | 471 kts | 284° |
| 2026-05-05 22:32 | 21.42580 | 98.16541 | 35912 ft | 487 kts | 284° |
| 2026-05-05 22:32 | 21.44355 | 98.09602 | 35920 ft | 513 kts | 284° |
| 2026-05-05 22:32 | 21.45241 | 98.06146 | 35921 ft | 484 kts | 284° |
| 2026-05-05 22:33 | 21.46127 | 98.02685 | 35921 ft | 490 kts | 284° |
| 2026-05-05 22:33 | 21.47011 | 97.99228 | 35921 ft | 470 kts | 284° |
| 2026-05-05 22:33 | 21.47897 | 97.95760 | 35922 ft | 488 kts | 284° |
| 2026-05-05 22:33 | 21.48777 | 97.92315 | 35921 ft | 465 kts | 283° |
| 2026-05-05 22:34 | 21.49650 | 97.88889 | 35921 ft | 506 kts | 283° |
| 2026-05-05 22:34 | 21.50531 | 97.85432 | 35924 ft | 485 kts | 283° |
| 2026-05-05 22:34 | 21.51409 | 97.81987 | 35925 ft | 473 kts | 283° |
| 2026-05-05 22:34 | 21.52289 | 97.78521 | 35921 ft | 506 kts | 283° |
| 2026-05-05 22:35 | 21.53163 | 97.75082 | 35921 ft | 538 kts | 283° |
| 2026-05-05 22:35 | 21.54040 | 97.71627 | 35925 ft | 460 kts | 283° |
| 2026-05-05 22:35 | 21.54916 | 97.68177 | 35928 ft | 480 kts | 283° |
| 2026-05-05 22:36 | 21.56663 | 97.61277 | 35925 ft | 462 kts | 283° |
| 2026-05-05 22:36 | 21.57536 | 97.57827 | 35923 ft | 490 kts | 283° |
| 2026-05-05 22:36 | 21.58408 | 97.54378 | 35921 ft | 482 kts | 283° |
| 2026-05-05 22:37 | 21.60146 | 97.47486 | 35918 ft | 469 kts | 283° |
| 2026-05-05 22:37 | 21.61884 | 97.40582 | 35912 ft | 486 kts | 283° |
| 2026-05-05 22:38 | 21.63619 | 97.33679 | 35912 ft | 485 kts | 283° |
| 2026-05-05 22:38 | 21.65353 | 97.26769 | 35905 ft | 474 kts | 283° |
| 2026-05-05 22:38 | 21.66215 | 97.23328 | 35902 ft | 485 kts | 283° |
| 2026-05-05 22:39 | 21.67084 | 97.19856 | 35902 ft | 482 kts | 283° |
| 2026-05-05 22:39 | 21.68800 | 97.12992 | 35896 ft | 483 kts | 283° |
| 2026-05-05 22:40 | 21.70526 | 97.06075 | 35893 ft | 480 kts | 283° |
| 2026-05-05 22:40 | 21.72247 | 96.99160 | 35889 ft | 495 kts | 283° |
| 2026-05-05 22:40 | 21.73106 | 96.95710 | 35890 ft | 482 kts | 283° |
| 2026-05-05 22:41 | 21.73963 | 96.92259 | 35886 ft | 479 kts | 283° |
| 2026-05-05 22:41 | 21.75676 | 96.85353 | 35882 ft | 495 kts | 283° |
| 2026-05-05 22:41 | 21.76528 | 96.81911 | 35883 ft | 475 kts | 283° |
| 2026-05-05 22:42 | 21.77382 | 96.78462 | 35883 ft | 471 kts | 283° |
| 2026-05-05 22:42 | 21.79084 | 96.71575 | 35880 ft | 478 kts | 283° |
| 2026-05-05 22:43 | 21.80775 | 96.64718 | 35876 ft | 480 kts | 283° |
| 2026-05-05 22:43 | 21.82472 | 96.57822 | 35872 ft | 479 kts | 283° |
| 2026-05-05 22:44 | 21.84167 | 96.50926 | 35868 ft | 490 kts | 283° |
| 2026-05-05 22:44 | 21.85857 | 96.44034 | 35859 ft | 481 kts | 283° |
| 2026-05-05 22:45 | 21.87545 | 96.37135 | 35853 ft | 473 kts | 283° |
| 2026-05-05 22:45 | 21.88389 | 96.33706 | 35847 ft | 487 kts | 283° |
| 2026-05-05 22:45 | 21.89230 | 96.30236 | 35842 ft | 477 kts | 283° |
| 2026-05-05 22:46 | 21.90903 | 96.23384 | 35837 ft | 473 kts | 283° |
| 2026-05-05 22:46 | 21.92582 | 96.16475 | 35830 ft | 493 kts | 283° |
| 2026-05-05 22:46 | 21.93356 | 96.13013 | 35825 ft | 481 kts | 278° |
| 2026-05-05 22:47 | 21.93767 | 96.09481 | 35823 ft | 486 kts | 275° |
| 2026-05-05 22:47 | 21.94102 | 96.05944 | 35816 ft | 472 kts | 274° |
| 2026-05-05 22:47 | 21.94404 | 96.02409 | 35817 ft | 476 kts | 274° |
| 2026-05-05 22:47 | 21.94696 | 95.98863 | 35809 ft | 490 kts | 274° |
| 2026-05-05 22:48 | 21.94985 | 95.95327 | 35811 ft | 464 kts | 274° |
| 2026-05-05 22:48 | 21.95280 | 95.91787 | 35809 ft | 483 kts | 274° |
| 2026-05-05 22:48 | 21.95580 | 95.88240 | 35812 ft | 483 kts | 274° |
| 2026-05-05 22:48 | 21.95883 | 95.84711 | 35810 ft | 465 kts | 274° |
| 2026-05-05 22:49 | 21.96187 | 95.81174 | 35808 ft | 474 kts | 274° |
| 2026-05-05 22:49 | 21.96795 | 95.74107 | 35809 ft | 489 kts | 274° |
| 2026-05-05 22:49 | 21.97097 | 95.70583 | 35812 ft | 473 kts | 274° |
| 2026-05-05 22:50 | 21.97400 | 95.67042 | 35807 ft | 476 kts | 274° |
| 2026-05-05 22:50 | 21.97998 | 95.60022 | 35808 ft | 472 kts | 274° |
| 2026-05-05 22:51 | 21.98596 | 95.52969 | 35807 ft | 476 kts | 274° |
| 2026-05-05 22:51 | 21.99191 | 95.45912 | 35810 ft | 487 kts | 274° |
| 2026-05-05 22:51 | 21.99487 | 95.42382 | 35807 ft | 461 kts | 274° |
| 2026-05-05 22:52 | 21.99782 | 95.38854 | 35808 ft | 476 kts | 274° |
| 2026-05-05 22:52 | 22.00368 | 95.31813 | 35808 ft | 470 kts | 274° |
| 2026-05-05 22:53 | 22.00950 | 95.24772 | 35809 ft | 470 kts | 274° |
| 2026-05-05 22:53 | 22.01524 | 95.17793 | 35811 ft | 461 kts | 274° |
| 2026-05-05 22:53 | 22.01813 | 95.14276 | 35811 ft | 487 kts | 274° |
| 2026-05-05 22:54 | 22.02100 | 95.10757 | 35811 ft | 469 kts | 274° |
| 2026-05-05 22:54 | 22.02673 | 95.03721 | 35813 ft | 475 kts | 274° |
| 2026-05-05 22:55 | 22.03243 | 94.96687 | 35811 ft | 469 kts | 274° |
| 2026-05-05 22:55 | 22.03809 | 94.89654 | 35800 ft | 473 kts | 274° |
| 2026-05-05 22:56 | 22.04372 | 94.82623 | 35818 ft | 467 kts | 274° |
| 2026-05-05 22:56 | 22.04932 | 94.75598 | 35803 ft | 460 kts | 274° |
| 2026-05-05 22:57 | 22.05485 | 94.68614 | 35834 ft | 469 kts | 274° |
| 2026-05-05 22:57 | 22.06037 | 94.61601 | 35832 ft | 472 kts | 274° |
| 2026-05-05 22:58 | 22.06494 | 94.55778 | 35840 ft | 469 kts | 274° |
| 2026-05-05 22:58 | 22.07039 | 94.48786 | 35841 ft | 471 kts | 274° |
| 2026-05-05 22:58 | 22.07311 | 94.45291 | 35840 ft | 458 kts | 274° |
| 2026-05-05 22:59 | 22.07582 | 94.41789 | 35835 ft | 480 kts | 274° |
| 2026-05-05 22:59 | 22.07852 | 94.38289 | 35841 ft | 462 kts | 274° |
| 2026-05-05 22:59 | 22.08121 | 94.34795 | 35840 ft | 465 kts | 274° |
| 2026-05-05 23:00 | 22.08925 | 94.24315 | 35839 ft | 478 kts | 274° |
| 2026-05-05 23:00 | 22.09195 | 94.20820 | 35849 ft | 467 kts | 273° |
| 2026-05-05 23:00 | 22.09462 | 94.17341 | 35840 ft | 465 kts | 273° |
| 2026-05-05 23:01 | 22.09992 | 94.10377 | 35854 ft | 468 kts | 273° |
| 2026-05-05 23:01 | 22.10509 | 94.03496 | 35857 ft | 466 kts | 273° |
| 2026-05-05 23:02 | 22.11026 | 93.96574 | 35860 ft | 469 kts | 273° |
| 2026-05-05 23:02 | 22.11540 | 93.89656 | 35875 ft | 462 kts | 273° |
| 2026-05-05 23:03 | 22.12051 | 93.82751 | 35889 ft | 476 kts | 273° |
| 2026-05-05 23:03 | 22.12305 | 93.79298 | 35896 ft | 465 kts | 273° |
| 2026-05-05 23:03 | 22.12558 | 93.75850 | 35904 ft | 468 kts | 273° |
| 2026-05-05 23:04 | 22.13063 | 93.68942 | 35916 ft | 466 kts | 273° |
| 2026-05-05 23:04 | 22.13564 | 93.62051 | 35917 ft | 459 kts | 273° |
| 2026-05-05 23:05 | 22.14063 | 93.55148 | 35940 ft | 460 kts | 272° |
| 2026-05-05 23:05 | 22.14310 | 93.51711 | 35947 ft | 485 kts | 272° |
| 2026-05-05 23:05 | 22.14559 | 93.48245 | 35944 ft | 473 kts | 272° |
| 2026-05-05 23:06 | 22.15052 | 93.41346 | 35947 ft | 464 kts | 272° |
| 2026-05-05 23:06 | 22.15539 | 93.34474 | 35946 ft | 463 kts | 272° |
| 2026-05-05 23:07 | 22.16028 | 93.27554 | 35938 ft | 463 kts | 272° |
| 2026-05-05 23:07 | 22.16270 | 93.24104 | 35941 ft | 448 kts | 272° |
| 2026-05-05 23:07 | 22.16513 | 93.20653 | 35933 ft | 451 kts | 272° |
| 2026-05-05 23:08 | 22.16994 | 93.13738 | 35928 ft | 465 kts | 272° |
| 2026-05-05 23:08 | 22.17473 | 93.06831 | 35915 ft | 460 kts | 272° |
| 2026-05-05 23:09 | 22.17948 | 92.99928 | 35907 ft | 456 kts | 272° |
| 2026-05-05 23:09 | 22.18420 | 92.93027 | 35897 ft | 456 kts | 272° |
| 2026-05-05 23:10 | 22.18887 | 92.86172 | 35892 ft | 464 kts | 272° |
| 2026-05-05 23:10 | 22.19353 | 92.79270 | 35886 ft | 481 kts | 272° |
| 2026-05-05 23:11 | 22.19817 | 92.72366 | 35880 ft | 458 kts | 272° |
| 2026-05-05 23:11 | 22.20278 | 92.65461 | 35873 ft | 475 kts | 272° |
| 2026-05-05 23:12 | 22.20503 | 92.62016 | 35875 ft | 454 kts | 272° |
| 2026-05-05 23:12 | 22.20716 | 92.58562 | 35869 ft | 463 kts | 271° |
| 2026-05-05 23:12 | 22.20923 | 92.55095 | 35871 ft | 474 kts | 271° |
| 2026-05-05 23:12 | 22.21128 | 92.51624 | 35866 ft | 469 kts | 271° |
| 2026-05-05 23:13 | 22.21538 | 92.44682 | 35866 ft | 470 kts | 272° |
| 2026-05-05 23:13 | 22.21950 | 92.37814 | 35852 ft | 472 kts | 272° |
| 2026-05-05 23:14 | 22.22151 | 92.34477 | 35856 ft | 435 kts | 272° |
| 2026-05-05 23:14 | 22.22350 | 92.31160 | 35855 ft | 435 kts | 272° |
| 2026-05-05 23:14 | 22.22546 | 92.27856 | 35856 ft | 448 kts | 272° |
| 2026-05-05 23:14 | 22.22751 | 92.24555 | 35855 ft | 439 kts | 272° |
| 2026-05-05 23:15 | 22.23229 | 92.17947 | 35855 ft | 443 kts | 273° |
| 2026-05-05 23:15 | 22.23723 | 92.11343 | 35850 ft | 438 kts | 273° |
| 2026-05-05 23:16 | 22.24203 | 92.04762 | 35850 ft | 462 kts | 273° |
| 2026-05-05 23:16 | 22.24681 | 91.98077 | 35335 ft | 455 kts | 273° |
| 2026-05-05 23:17 | 22.24926 | 91.94703 | 34602 ft | 469 kts | 273° |
| 2026-05-05 23:17 | 22.25173 | 91.91397 | 33810 ft | 452 kts | 273° |
| 2026-05-05 23:17 | 22.25424 | 91.88116 | 33056 ft | 450 kts | 274° |
| 2026-05-05 23:17 | 22.26092 | 91.84872 | 31928 ft | 512 kts | 288° |
| 2026-05-05 23:18 | 22.27592 | 91.81878 | 31080 ft | 460 kts | 302° |
| 2026-05-05 23:18 | 22.29680 | 91.79314 | 30256 ft | 471 kts | 311° |
| 2026-05-05 23:18 | 22.31995 | 91.77015 | 29475 ft | 446 kts | 314° |
| 2026-05-05 23:18 | 22.34374 | 91.74841 | 28692 ft | 443 kts | 315° |
| 2026-05-05 23:19 | 22.36753 | 91.72739 | 27918 ft | 442 kts | 316° |
| 2026-05-05 23:19 | 22.39114 | 91.70671 | 27161 ft | 456 kts | 316° |
| 2026-05-05 23:19 | 22.41423 | 91.68643 | 26385 ft | 426 kts | 316° |
| 2026-05-05 23:19 | 22.43699 | 91.66626 | 25635 ft | 419 kts | 315° |
| 2026-05-05 23:20 | 22.45926 | 91.64633 | 24987 ft | 426 kts | 315° |
| 2026-05-05 23:20 | 22.48083 | 91.62698 | 24749 ft | 399 kts | 315° |
| 2026-05-05 23:20 | 22.50189 | 91.60806 | 24587 ft | 395 kts | 315° |
| 2026-05-05 23:20 | 22.52272 | 91.58926 | 24301 ft | 396 kts | 315° |
| 2026-05-05 23:21 | 22.54334 | 91.57062 | 23960 ft | 384 kts | 314° |
| 2026-05-05 23:21 | 22.56384 | 91.55207 | 23565 ft | 387 kts | 314° |
| 2026-05-05 23:21 | 22.58381 | 91.53400 | 23240 ft | 395 kts | 314° |
| 2026-05-05 23:21 | 22.60393 | 91.51573 | 22922 ft | 387 kts | 314° |
| 2026-05-05 23:22 | 22.62387 | 91.49750 | 22540 ft | 370 kts | 314° |
| 2026-05-05 23:22 | 22.64361 | 91.47944 | 22213 ft | 371 kts | 315° |
| 2026-05-05 23:22 | 22.66312 | 91.46161 | 21937 ft | 372 kts | 315° |
| 2026-05-05 23:22 | 22.68266 | 91.44379 | 21584 ft | 360 kts | 315° |
| 2026-05-05 23:23 | 22.70207 | 91.42616 | 21232 ft | 371 kts | 316° |
| 2026-05-05 23:23 | 22.72128 | 91.40874 | 20925 ft | 367 kts | 316° |
| 2026-05-05 23:23 | 22.74042 | 91.39138 | 20595 ft | 368 kts | 316° |
| 2026-05-05 23:23 | 22.75946 | 91.37411 | 20220 ft | 359 kts | 316° |
| 2026-05-05 23:24 | 22.77834 | 91.35699 | 19898 ft | 355 kts | 317° |
| 2026-05-05 23:24 | 22.79705 | 91.34002 | 19587 ft | 362 kts | 317° |
| 2026-05-05 23:24 | 22.81569 | 91.32309 | 19212 ft | 350 kts | 317° |
| 2026-05-05 23:24 | 22.83424 | 91.30624 | 18854 ft | 357 kts | 317° |
| 2026-05-05 23:25 | 22.85258 | 91.28957 | 18544 ft | 355 kts | 318° |
| 2026-05-05 23:25 | 22.87097 | 91.27285 | 18171 ft | 354 kts | 318° |
| 2026-05-05 23:25 | 22.88924 | 91.25627 | 17739 ft | 343 kts | 318° |
| 2026-05-05 23:25 | 22.90736 | 91.23987 | 17338 ft | 348 kts | 318° |
| 2026-05-05 23:26 | 22.92558 | 91.22339 | 16949 ft | 342 kts | 318° |
| 2026-05-05 23:26 | 22.94365 | 91.20701 | 16519 ft | 351 kts | 318° |
| 2026-05-05 23:26 | 22.96167 | 91.19067 | 16092 ft | 345 kts | 318° |
| 2026-05-05 23:26 | 22.97960 | 91.17437 | 15726 ft | 335 kts | 318° |
| 2026-05-05 23:27 | 22.99748 | 91.15808 | 15318 ft | 334 kts | 318° |
| 2026-05-05 23:27 | 23.01511 | 91.14198 | 14896 ft | 331 kts | 318° |
| 2026-05-05 23:27 | 23.03285 | 91.12576 | 14529 ft | 338 kts | 318° |
| 2026-05-05 23:27 | 23.05053 | 91.10959 | 14197 ft | 341 kts | 319° |
| 2026-05-05 23:28 | 23.06813 | 91.09350 | 13811 ft | 329 kts | 319° |
| 2026-05-05 23:28 | 23.08573 | 91.07740 | 13390 ft | 322 kts | 319° |
| 2026-05-05 23:28 | 23.10320 | 91.06142 | 13042 ft | 342 kts | 319° |
| 2026-05-05 23:28 | 23.12061 | 91.04550 | 12672 ft | 329 kts | 319° |
| 2026-05-05 23:29 | 23.13803 | 91.02957 | 12274 ft | 325 kts | 319° |
| 2026-05-05 23:29 | 23.15535 | 91.01372 | 11910 ft | 343 kts | 319° |
| 2026-05-05 23:29 | 23.17259 | 90.99795 | 11572 ft | 317 kts | 319° |
| 2026-05-05 23:29 | 23.18977 | 90.98221 | 11180 ft | 324 kts | 319° |
| 2026-05-05 23:30 | 23.20692 | 90.96646 | 10810 ft | 325 kts | 319° |
| 2026-05-05 23:30 | 23.22381 | 90.95087 | 10568 ft | 321 kts | 319° |
| 2026-05-05 23:30 | 23.24008 | 90.93586 | 10439 ft | 304 kts | 319° |
| 2026-05-05 23:30 | 23.25559 | 90.92156 | 10309 ft | 291 kts | 319° |
| 2026-05-05 23:31 | 23.27045 | 90.90787 | 10182 ft | 277 kts | 320° |
| 2026-05-05 23:31 | 23.28491 | 90.89455 | 10037 ft | 284 kts | 320° |
| 2026-05-05 23:31 | 23.29935 | 90.88124 | 9917 ft | 281 kts | 320° |
| 2026-05-05 23:31 | 23.31375 | 90.86797 | 9781 ft | 278 kts | 320° |
| 2026-05-05 23:32 | 23.32811 | 90.85473 | 9637 ft | 272 kts | 320° |
| 2026-05-05 23:32 | 23.34250 | 90.84145 | 9503 ft | 276 kts | 320° |
| 2026-05-05 23:32 | 23.35697 | 90.82811 | 9331 ft | 278 kts | 320° |
| 2026-05-05 23:32 | 23.37145 | 90.81478 | 9087 ft | 275 kts | 320° |
| 2026-05-05 23:33 | 23.38570 | 90.80168 | 8814 ft | 269 kts | 320° |
| 2026-05-05 23:33 | 23.39995 | 90.78858 | 8545 ft | 270 kts | 320° |
| 2026-05-05 23:33 | 23.41407 | 90.77559 | 8265 ft | 273 kts | 320° |
| 2026-05-05 23:33 | 23.42806 | 90.76270 | 8002 ft | 264 kts | 320° |
| 2026-05-05 23:34 | 23.44197 | 90.74986 | 7740 ft | 269 kts | 320° |
| 2026-05-05 23:34 | 23.45587 | 90.73702 | 7480 ft | 266 kts | 320° |
| 2026-05-05 23:34 | 23.46971 | 90.72422 | 7217 ft | 262 kts | 320° |
| 2026-05-05 23:34 | 23.48346 | 90.71150 | 6956 ft | 260 kts | 320° |
| 2026-05-05 23:35 | 23.49718 | 90.69880 | 6685 ft | 258 kts | 320° |
| 2026-05-05 23:35 | 23.51083 | 90.68615 | 6451 ft | 264 kts | 320° |
| 2026-05-05 23:35 | 23.52446 | 90.67352 | 6182 ft | 259 kts | 320° |
| 2026-05-05 23:35 | 23.53809 | 90.66088 | 5920 ft | 255 kts | 319° |
| 2026-05-05 23:36 | 23.55163 | 90.64833 | 5662 ft | 259 kts | 319° |
| 2026-05-05 23:36 | 23.56498 | 90.63585 | 5508 ft | 246 kts | 317° |
| 2026-05-05 23:36 | 23.57657 | 90.62232 | 5508 ft | 258 kts | 311° |
| 2026-05-05 23:36 | 23.58784 | 90.60785 | 5314 ft | 246 kts | 310° |
| 2026-05-05 23:37 | 23.59918 | 90.59379 | 5075 ft | 250 kts | 315° |
| 2026-05-05 23:37 | 23.61197 | 90.58146 | 4836 ft | 257 kts | 321° |
| 2026-05-05 23:37 | 23.62548 | 90.57037 | 4594 ft | 243 kts | 324° |
| 2026-05-05 23:37 | 23.63880 | 90.56003 | 4372 ft | 231 kts | 324° |
| 2026-05-05 23:38 | 23.65158 | 90.55011 | 4135 ft | 210 kts | 324° |
| 2026-05-05 23:38 | 23.66363 | 90.54061 | 3889 ft | 227 kts | 324° |
| 2026-05-05 23:38 | 23.67529 | 90.53134 | 3649 ft | 221 kts | 323° |
| 2026-05-05 23:38 | 23.68611 | 90.52271 | 3417 ft | 201 kts | 323° |
| 2026-05-05 23:39 | 23.69655 | 90.51440 | 3174 ft | 181 kts | 323° |
| 2026-05-05 23:39 | 23.70638 | 90.50658 | 2953 ft | 181 kts | 324° |
| 2026-05-05 23:39 | 23.71585 | 90.49905 | 2722 ft | 174 kts | 324° |
| 2026-05-05 23:39 | 23.72522 | 90.49161 | 2545 ft | 168 kts | 324° |
| 2026-05-05 23:40 | 23.73454 | 90.48421 | 2343 ft | 163 kts | 324° |
| 2026-05-05 23:40 | 23.74376 | 90.47688 | 2117 ft | 163 kts | 324° |
| 2026-05-05 23:40 | 23.75295 | 90.46956 | 1941 ft | 166 kts | 324° |
| 2026-05-05 23:40 | 23.76202 | 90.46233 | 1733 ft | 165 kts | 324° |
| 2026-05-05 23:41 | 23.77106 | 90.45510 | 1510 ft | 166 kts | 324° |
| 2026-05-05 23:41 | 23.78009 | 90.44793 | 1290 ft | 163 kts | 324° |
| 2026-05-05 23:41 | 23.78913 | 90.44084 | 1078 ft | 167 kts | 324° |
| 2026-05-05 23:41 | 23.79820 | 90.43371 | 853 ft | 164 kts | 324° |
| 2026-05-05 23:42 | 23.80713 | 90.42659 | 671 ft | 158 kts | 324° |
| 2026-05-05 23:42 | 23.81612 | 90.41943 | 426 ft | 160 kts | 324° |
| 2026-05-05 23:42 | 23.82527 | 90.41220 | 179 ft | 167 kts | 324° |
| 2026-05-05 23:42 | 23.83439 | 90.40497 | 57 ft | 158 kts | 324° |
| 2026-05-05 23:43 | 23.84271 | 90.39811 | 39 ft | 135 kts | 322° |
| 2026-05-05 23:43 | 23.84905 | 90.39310 | 40 ft | 95 kts | 328° |
| 2026-05-05 23:43 | 23.85316 | 90.38994 | 39 ft | 56 kts | 324° |
| 2026-05-05 23:43 | 23.85467 | 90.38905 | 42 ft | 15 kts | 2° |
| 2026-05-05 23:44 | 23.85545 | 90.38939 | 42 ft | 11 kts | 43° |
| 2026-05-05 23:44 | 23.85578 | 90.38986 | 40 ft | 13 kts | 54° |
| 2026-05-05 23:44 | 23.85628 | 90.39064 | 40 ft | 13 kts | 54° |
| 2026-05-05 23:44 | 23.85686 | 90.39152 | 40 ft | 16 kts | 54° |
| 2026-05-05 23:45 | 23.85747 | 90.39242 | 40 ft | 13 kts | 53° |
| 2026-05-05 23:45 | 23.85769 | 90.39309 | 39 ft | 9 kts | 131° |
| 2026-05-05 23:45 | 23.85724 | 90.39345 | 41 ft | 8 kts | 149° |
| 2026-05-05 23:45 | 23.85666 | 90.39385 | 39 ft | 12 kts | 147° |
| 2026-05-05 23:46 | 23.85594 | 90.39437 | 39 ft | 12 kts | 146° |
| 2026-05-05 23:46 | 23.85521 | 90.39495 | 39 ft | 13 kts | 143° |
| 2026-05-05 23:46 | 23.85466 | 90.39538 | 40 ft | 6 kts | 134° |
| 2026-05-05 23:46 | 23.85450 | 90.39589 | 42 ft | 9 kts | 67° |
| 2026-05-05 23:47 | 23.85478 | 90.39634 | 42 ft | 4 kts | 52° |
| 2026-05-05 23:47 | 23.85502 | 90.39666 | 40 ft | 7 kts | 51° |
| 2026-05-05 23:47 | 23.85554 | 90.39674 | 41 ft | 10 kts | 327° |
| 2026-05-05 23:47 | 23.85629 | 90.39632 | 41 ft | 11 kts | 334° |
| 2026-05-05 23:48 | 23.85635 | 90.39574 | 41 ft | 7 kts | 231° |
| 2026-05-05 23:48 | 23.85626 | 90.39560 | 39 ft | 0 kts | 235° |